createdAt,value
2023-01-08T00:02:09.240Z,82.14
2023-01-08T00:05:06.906Z,82.21
2023-01-08T00:08:04.370Z,82.33
2023-01-08T00:11:02.092Z,82.44
2023-01-08T00:13:59.503Z,82.46
2023-01-08T00:16:57.347Z,82.47
2023-01-08T00:19:54.936Z,82.52
2023-01-08T00:22:52.674Z,82.61
2023-01-08T00:25:50.105Z,82.65
2023-01-08T00:28:47.808Z,82.70
2023-01-08T00:31:45.504Z,82.72
2023-01-08T00:34:43.237Z,82.79
2023-01-08T00:37:40.919Z,82.85
2023-01-08T00:40:38.849Z,82.93
2023-01-08T00:43:36.314Z,83.06
2023-01-08T00:46:33.925Z,83.00
2023-01-08T00:49:31.355Z,82.97
2023-01-08T00:52:29.125Z,83.07
2023-01-08T00:55:26.587Z,83.06
2023-01-08T00:58:24.343Z,83.07
2023-01-08T01:01:22.132Z,82.99
2023-01-08T01:04:19.807Z,82.90
2023-01-08T01:07:17.541Z,82.78
2023-01-08T01:10:14.975Z,82.78
2023-01-08T01:13:12.780Z,82.86
2023-01-08T01:16:10.210Z,82.90
2023-01-08T01:19:07.857Z,82.95
2023-01-08T01:22:05.287Z,82.92
2023-01-08T01:25:02.990Z,82.88
2023-01-08T01:28:00.422Z,82.86
2023-01-08T01:30:58.226Z,82.82
2023-01-08T01:33:55.821Z,82.77
2023-01-08T01:36:53.719Z,82.80
2023-01-08T01:39:51.160Z,82.88
2023-01-08T01:42:49.424Z,82.89
2023-01-08T01:45:47.088Z,82.90
2023-01-08T01:48:44.548Z,82.80
2023-01-08T01:51:42.238Z,82.88
2023-01-08T01:54:39.666Z,82.88
2023-01-08T01:57:37.448Z,82.82
2023-01-08T02:00:35.029Z,82.79
2023-01-08T02:03:32.758Z,82.89
2023-01-08T02:06:30.184Z,82.82
2023-01-08T02:09:27.785Z,82.78
2023-01-08T02:12:25.251Z,82.77
2023-01-08T02:15:23.428Z,82.63
2023-01-08T02:18:20.961Z,82.64
2023-01-08T02:21:18.761Z,82.62
2023-01-08T02:24:16.190Z,82.63
2023-01-08T02:27:13.957Z,82.73
2023-01-08T02:30:11.751Z,82.72
2023-01-08T02:33:09.188Z,82.68
2023-01-08T02:36:06.873Z,82.63
2023-01-08T02:39:04.291Z,82.61
2023-01-08T02:42:01.887Z,82.56
2023-01-08T02:44:59.325Z,82.57
2023-01-08T02:47:56.910Z,82.59
2023-01-08T02:50:54.683Z,82.64
2023-01-08T02:53:52.159Z,82.63
2023-01-08T02:56:49.912Z,82.58
2023-01-08T02:59:47.332Z,82.53
2023-01-08T03:02:44.916Z,82.60
2023-01-08T03:05:42.341Z,82.61
2023-01-08T03:08:39.945Z,82.61
2023-01-08T03:11:38.048Z,82.60
2023-01-08T03:14:35.519Z,82.66
2023-01-08T03:17:33.225Z,82.72
2023-01-08T03:20:30.689Z,82.71
2023-01-08T03:23:28.367Z,82.74
2023-01-08T03:26:25.791Z,82.80
2023-01-08T03:29:24.637Z,82.87
2023-01-08T03:32:22.262Z,82.93
2023-01-08T03:35:19.704Z,82.93
2023-01-08T03:38:17.417Z,83.03
2023-01-08T03:41:14.864Z,83.10
2023-01-08T03:44:12.640Z,83.13
2023-01-08T03:47:10.067Z,83.21
2023-01-08T03:50:07.757Z,83.26
2023-01-08T03:53:05.184Z,83.29
2023-01-08T03:56:02.913Z,83.41
2023-01-08T03:59:00.527Z,83.49
2023-01-08T04:01:58.031Z,83.50
2023-01-08T04:04:55.783Z,83.53
2023-01-08T04:07:53.214Z,83.62
2023-01-08T04:10:50.913Z,83.72
2023-01-08T04:13:48.344Z,83.82
2023-01-08T04:16:45.919Z,83.90
2023-01-08T04:19:43.351Z,83.91
2023-01-08T04:22:41.058Z,84.00
2023-01-08T04:25:38.523Z,83.99
2023-01-08T04:28:36.211Z,83.94
2023-01-08T04:31:33.943Z,83.92
2023-01-08T04:34:31.375Z,83.87
2023-01-08T04:37:29.085Z,83.90
2023-01-08T04:40:26.522Z,83.93
2023-01-08T04:43:24.205Z,83.90
2023-01-08T04:46:21.669Z,83.90
2023-01-08T04:49:19.425Z,83.82
2023-01-08T04:52:16.846Z,83.85
2023-01-08T04:55:14.571Z,83.90
2023-01-08T04:58:11.999Z,83.96
2023-01-08T05:01:09.685Z,83.97
2023-01-08T05:04:07.546Z,83.95
2023-01-08T05:07:04.988Z,83.96
2023-01-08T05:10:02.683Z,84.00
2023-01-08T05:13:00.119Z,84.01
2023-01-08T05:15:57.762Z,84.04
2023-01-08T05:18:55.213Z,84.09
2023-01-08T05:21:53.039Z,84.20
2023-01-08T05:24:50.471Z,84.22
2023-01-08T05:27:48.267Z,84.30
2023-01-08T05:30:46.105Z,84.30
2023-01-08T05:33:43.565Z,84.32
2023-01-08T05:36:41.245Z,84.32
2023-01-08T05:39:38.651Z,84.29
2023-01-08T05:42:36.773Z,84.30
2023-01-08T05:45:34.217Z,84.27
2023-01-08T05:48:31.990Z,84.19
2023-01-08T05:51:29.424Z,84.13
2023-01-08T05:54:27.020Z,84.12
2023-01-08T05:57:24.695Z,84.04
2023-01-08T06:00:22.111Z,84.01
2023-01-08T06:03:19.921Z,83.98
2023-01-08T06:06:17.807Z,84.00
2023-01-08T06:09:15.407Z,83.96
2023-01-08T06:12:12.872Z,83.90
2023-01-08T06:15:10.503Z,83.90
2023-01-08T06:18:07.932Z,83.92
2023-01-08T06:21:05.803Z,83.88
2023-01-08T06:24:03.229Z,83.90
2023-01-08T06:27:00.937Z,83.99
2023-01-08T06:29:58.349Z,83.96
2023-01-08T06:32:56.037Z,84.01
2023-01-08T06:35:53.650Z,84.00
2023-01-08T06:38:51.059Z,84.03
2023-01-08T06:41:48.738Z,84.09
2023-01-08T06:44:46.176Z,84.05
2023-01-08T06:47:43.863Z,84.07
2023-01-08T06:50:41.287Z,84.03
2023-01-08T06:53:39.105Z,84.04
2023-01-08T06:56:52.356Z,84.10
2023-01-08T06:59:50.908Z,84.10
2023-01-08T07:02:48.702Z,84.17
2023-01-08T07:05:46.336Z,84.19
2023-01-08T07:08:43.993Z,84.20
2023-01-08T07:11:41.447Z,84.20
2023-01-08T07:14:39.240Z,84.20
2023-01-08T07:17:36.663Z,84.29
2023-01-08T07:20:34.357Z,84.27
2023-01-08T07:23:31.780Z,84.26
2023-01-08T07:26:29.438Z,84.22
2023-01-08T07:29:27.386Z,84.23
2023-01-08T07:32:25.113Z,84.15
2023-01-08T07:35:22.550Z,84.15
2023-01-08T07:38:20.250Z,84.10
2023-01-08T07:41:17.683Z,84.11
2023-01-08T07:44:15.491Z,84.08
2023-01-08T07:47:13.628Z,84.06
2023-01-08T07:50:11.047Z,84.00
2023-01-08T07:53:08.677Z,83.96
2023-01-08T07:56:06.110Z,84.00
2023-01-08T07:59:03.780Z,83.86
2023-01-08T08:02:01.353Z,83.83
2023-01-08T08:04:59.237Z,83.88
2023-01-08T08:07:56.662Z,83.90
2023-01-08T08:10:54.464Z,83.93
2023-01-08T08:13:53.062Z,84.00
2023-01-08T08:16:51.221Z,83.98
2023-01-08T08:19:48.639Z,83.99
2023-01-08T08:22:46.481Z,84.00
2023-01-08T08:25:44.223Z,84.00
2023-01-08T08:28:41.704Z,83.98
2023-01-08T08:31:39.462Z,83.97
2023-01-08T08:34:36.925Z,83.90
2023-01-08T08:37:34.663Z,83.91
2023-01-08T08:40:32.108Z,83.90
2023-01-08T08:43:29.696Z,83.96
2023-01-08T08:46:27.140Z,84.01
2023-01-08T08:49:24.831Z,84.03
2023-01-08T08:52:22.275Z,84.13
2023-01-08T08:56:03.151Z,84.10
2023-01-08T08:59:00.573Z,84.06
2023-01-08T09:01:58.508Z,84.08
2023-01-08T09:04:56.051Z,84.11
2023-01-08T09:07:54.768Z,84.14
2023-01-08T09:10:52.447Z,84.10
2023-01-08T09:13:50.119Z,84.09
2023-01-08T09:16:47.852Z,84.04
2023-01-08T09:19:45.295Z,84.11
2023-01-08T09:22:42.976Z,84.18
2023-01-08T09:25:40.408Z,84.24
2023-01-08T09:28:38.481Z,84.34
2023-01-08T09:31:36.004Z,84.43
2023-01-08T09:34:33.736Z,84.41
2023-01-08T09:37:31.191Z,84.50
2023-01-08T09:40:28.867Z,84.51
2023-01-08T09:43:26.434Z,84.49
2023-01-08T09:46:24.823Z,84.55
2023-01-08T09:49:22.297Z,84.52
2023-01-08T09:52:20.228Z,84.52
2023-01-08T09:55:17.966Z,84.57
2023-01-08T09:58:15.429Z,84.59
2023-01-08T10:01:13.262Z,84.61
2023-01-08T10:04:11.626Z,84.65
2023-01-08T10:07:09.484Z,84.66
2023-01-08T10:10:07.143Z,84.62
2023-01-08T10:13:05.086Z,84.70
2023-01-08T10:16:04.621Z,84.81
2023-01-08T10:19:02.425Z,84.82
2023-01-08T10:21:59.883Z,84.80
2023-01-08T10:24:57.700Z,84.80
2023-01-08T10:27:55.190Z,84.76
2023-01-08T10:30:53.083Z,84.70
2023-01-08T10:33:50.900Z,84.70
2023-01-08T10:36:48.338Z,84.70
2023-01-08T10:39:45.948Z,84.78
2023-01-08T10:42:43.399Z,84.75
2023-01-08T10:45:42.399Z,84.64
2023-01-08T10:48:40.054Z,84.60
2023-01-08T10:51:37.601Z,84.50
2023-01-08T10:54:35.409Z,84.43
2023-01-08T10:57:33.415Z,84.39
2023-01-08T11:00:31.167Z,84.41
2023-01-08T11:03:28.661Z,84.40
2023-01-08T11:06:26.445Z,84.41
2023-01-08T11:09:24.074Z,84.38
2023-01-08T11:12:21.523Z,84.40
2023-01-08T11:15:19.337Z,84.42
2023-01-08T11:18:16.819Z,84.43
2023-01-08T11:21:14.578Z,84.38
2023-01-08T11:24:12.844Z,84.25
2023-01-08T11:27:10.298Z,84.28
2023-01-08T11:30:08.132Z,84.21
2023-01-08T11:33:05.558Z,84.20
2023-01-08T11:36:03.005Z,84.19
2023-01-08T11:39:00.432Z,84.20
2023-01-08T11:41:58.112Z,84.18
2023-01-08T11:44:55.873Z,84.20
2023-01-08T11:47:53.292Z,84.10
2023-01-08T11:50:51.006Z,84.11
2023-01-08T11:53:48.442Z,84.11
2023-01-08T11:56:46.042Z,83.94
2023-01-08T11:59:43.500Z,83.82
2023-01-08T12:02:41.859Z,83.64
2023-01-08T12:05:39.392Z,83.57
2023-01-08T12:08:37.025Z,83.48
2023-01-08T12:11:34.455Z,83.49
2023-01-08T12:14:32.257Z,83.41
2023-01-08T12:17:30.013Z,83.40
2023-01-08T12:20:27.463Z,83.43
2023-01-08T12:23:25.230Z,83.38
2023-01-08T12:26:22.739Z,83.32
2023-01-08T12:29:20.450Z,83.22
2023-01-08T12:32:17.921Z,83.18
2023-01-08T12:35:15.674Z,83.10
2023-01-08T12:38:13.115Z,83.07
2023-01-08T12:41:10.830Z,83.00
2023-01-08T12:44:10.621Z,82.86
2023-01-08T12:47:08.062Z,82.83
2023-01-08T12:50:05.953Z,82.80
2023-01-08T12:53:03.508Z,82.74
2023-01-08T12:56:02.796Z,82.60
2023-01-08T12:59:00.274Z,82.60
2023-01-08T13:01:58.261Z,82.56
2023-01-08T13:04:56.313Z,82.52
2023-01-08T13:07:53.782Z,82.47
2023-01-08T13:10:51.438Z,82.49
2023-01-08T13:13:49.001Z,82.48
2023-01-08T13:16:46.826Z,82.39
2023-01-08T13:19:44.330Z,82.42
2023-01-08T13:22:42.108Z,82.47
2023-01-08T13:25:40.069Z,82.33
2023-01-08T13:28:37.833Z,82.24
2023-01-08T13:31:35.638Z,82.17
2023-01-08T13:34:33.171Z,82.11
2023-01-08T13:37:31.043Z,82.07
2023-01-08T13:40:28.599Z,81.97
2023-01-08T13:43:26.356Z,81.86
2023-01-08T13:46:24.030Z,81.73
2023-01-08T13:49:21.902Z,81.63
2023-01-08T13:52:19.668Z,81.60
2023-01-08T13:55:17.146Z,81.52
2023-01-08T13:58:14.996Z,81.51
2023-01-08T14:01:13.499Z,81.42
2023-01-08T14:04:11.453Z,81.32
2023-01-08T14:07:09.222Z,81.28
2023-01-08T14:10:06.660Z,81.22
2023-01-08T14:13:04.447Z,81.18
2023-01-08T14:16:01.904Z,81.11
2023-01-08T14:18:59.594Z,81.00
2023-01-08T14:21:57.055Z,81.02
2023-01-08T14:24:54.849Z,80.96
2023-01-08T14:27:52.572Z,80.89
2023-01-08T14:30:50.442Z,80.82
2023-01-08T14:33:48.520Z,80.72
2023-01-08T14:36:45.976Z,80.70
2023-01-08T14:39:44.044Z,80.66
2023-01-08T14:42:51.847Z,80.60
2023-01-08T14:45:55.116Z,80.52
2023-01-08T14:48:56.979Z,80.59
2023-01-08T14:52:03.996Z,80.58
2023-01-08T14:55:07.542Z,80.54
2023-01-08T14:58:09.229Z,80.51
2023-01-08T15:01:15.048Z,80.47
2023-01-08T15:04:18.928Z,80.45
2023-01-08T15:10:20.636Z,80.30
2023-01-08T15:17:06.405Z,80.35
2023-01-08T15:20:05.517Z,80.27
2023-01-08T15:23:02.936Z,80.25
2023-01-08T15:26:00.823Z,80.21
2023-01-08T15:28:58.288Z,80.20
2023-01-08T15:31:56.102Z,80.15
2023-01-08T15:34:54.187Z,80.10
2023-01-08T15:37:51.680Z,80.11
2023-01-08T15:40:49.478Z,80.15
2023-01-08T15:43:46.896Z,80.12
2023-01-08T15:46:44.705Z,80.13
2023-01-08T15:49:42.143Z,80.10
2023-01-08T15:52:40.031Z,80.05
2023-01-08T15:55:37.993Z,80.08
2023-01-08T15:58:35.431Z,80.04
2023-01-08T16:01:33.147Z,79.97
2023-01-08T16:04:30.783Z,80.05
2023-01-08T16:07:28.646Z,80.05
2023-01-08T16:10:26.495Z,80.05
2023-01-08T16:13:24.257Z,79.99
2023-01-08T16:16:22.717Z,80.00
2023-01-08T16:19:20.533Z,79.97
2023-01-08T16:22:18.400Z,79.91
2023-01-08T16:25:16.381Z,79.95
2023-01-08T16:28:14.252Z,79.98
2023-01-08T16:31:12.180Z,79.93
2023-01-08T16:34:10.623Z,79.88
2023-01-08T16:37:09.017Z,79.89
2023-01-08T16:40:07.110Z,79.90
2023-01-08T16:43:05.191Z,79.89
2023-01-08T16:46:04.691Z,79.84
2023-01-08T16:49:02.227Z,79.79
2023-01-08T16:51:59.951Z,79.80
2023-01-08T16:54:57.885Z,79.80
2023-01-08T16:57:56.339Z,79.74
2023-01-08T17:00:54.843Z,79.73
2023-01-08T17:03:52.882Z,79.70
2023-01-08T17:06:50.746Z,79.72
2023-01-08T17:09:48.187Z,79.79
2023-01-08T17:12:46.413Z,79.80
2023-01-08T17:15:44.305Z,79.81
2023-01-08T17:18:42.660Z,79.82
2023-01-08T17:21:41.031Z,79.86
2023-01-08T17:24:39.671Z,79.88
2023-01-08T17:27:38.425Z,79.93
2023-01-08T17:30:36.827Z,79.98
2023-01-08T17:33:35.786Z,80.01
2023-01-08T17:36:34.277Z,80.02
2023-01-08T17:39:33.377Z,80.07
2023-01-08T17:42:30.958Z,80.07
2023-01-08T17:45:28.792Z,80.11
2023-01-08T17:48:27.091Z,80.12
2023-01-08T17:51:27.072Z,80.16
2023-01-08T17:54:25.471Z,80.13
2023-01-08T17:57:23.895Z,80.04
2023-01-08T18:00:22.168Z,80.01
2023-01-08T18:03:19.959Z,79.97
2023-01-08T18:06:18.693Z,79.88
2023-01-08T18:09:17.020Z,79.84
2023-01-08T18:12:15.725Z,79.80
2023-01-08T18:15:16.435Z,79.81
2023-01-08T18:18:14.458Z,79.81
2023-01-08T18:21:11.942Z,79.72
2023-01-08T18:24:09.986Z,79.82
2023-01-08T18:27:07.630Z,79.74
2023-01-08T18:30:06.064Z,79.71
2023-01-08T18:33:03.987Z,79.77
2023-01-08T18:36:03.391Z,79.73
2023-01-08T18:39:01.751Z,79.76
2023-01-08T18:42:17.338Z,79.78
2023-01-08T18:45:15.632Z,79.89
2023-01-08T18:48:13.777Z,79.99
2023-01-08T18:51:11.512Z,80.03
2023-01-08T18:54:11.660Z,80.11
2023-01-08T18:57:09.571Z,80.19
2023-01-08T19:00:10.341Z,80.28
2023-01-08T19:03:09.471Z,80.31
2023-01-08T19:06:07.724Z,80.37
2023-01-08T19:09:05.250Z,80.40
2023-01-08T19:12:03.783Z,80.40
2023-01-08T19:15:01.338Z,80.50
2023-01-08T19:18:00.358Z,80.60
2023-01-08T19:20:59.998Z,80.60
2023-01-08T19:23:58.405Z,80.60
2023-01-08T19:26:56.696Z,80.60
2023-01-08T19:29:54.515Z,80.62
2023-01-08T19:32:52.252Z,80.60
2023-01-08T19:35:50.160Z,80.65
2023-01-08T19:38:50.351Z,80.60
2023-01-08T19:42:06.270Z,80.59
2023-01-08T19:45:04.795Z,80.65
2023-01-08T19:48:02.707Z,80.65
2023-01-08T19:51:00.442Z,80.59
2023-01-08T19:53:58.838Z,80.54
2023-01-08T19:56:57.186Z,80.57
2023-01-08T19:59:55.716Z,80.58
2023-01-08T20:02:54.986Z,80.51
2023-01-08T20:05:53.241Z,80.47
2023-01-08T20:08:51.448Z,80.41
2023-01-08T20:11:49.837Z,80.45
2023-01-08T20:14:49.456Z,80.40
2023-01-08T20:17:47.415Z,80.41
2023-01-08T20:20:45.933Z,80.41
2023-01-08T20:23:44.000Z,80.32
2023-01-08T20:26:42.223Z,80.30
2023-01-08T20:29:40.952Z,80.31
2023-01-08T20:32:39.348Z,80.36
2023-01-08T20:35:37.082Z,80.44
2023-01-08T20:38:35.246Z,80.50
2023-01-08T20:41:36.001Z,80.52
2023-01-08T20:44:33.600Z,80.44
2023-01-08T20:47:32.203Z,80.43
2023-01-08T20:50:30.238Z,80.49
2023-01-08T20:53:29.632Z,80.45
2023-01-08T20:56:27.526Z,80.43
2023-01-08T20:59:25.709Z,80.43
2023-01-08T21:02:23.527Z,80.47
2023-01-08T21:05:21.680Z,80.47
2023-01-08T21:08:19.536Z,80.41
2023-01-08T21:11:17.273Z,80.46
2023-01-08T21:14:15.056Z,80.46
2023-01-08T21:17:12.784Z,80.48
2023-01-08T21:20:10.450Z,80.47
2023-01-08T21:23:07.884Z,80.52
2023-01-08T21:26:05.978Z,80.58
2023-01-08T21:29:04.294Z,80.66
2023-01-08T21:32:01.902Z,80.70
2023-01-08T21:34:59.843Z,80.72
2023-01-08T21:37:57.263Z,80.82
2023-01-08T21:40:55.141Z,80.88
2023-01-08T21:44:10.167Z,80.94
2023-01-08T21:47:09.004Z,81.07
2023-01-08T21:50:06.502Z,81.09
2023-01-08T21:53:21.975Z,81.16
2023-01-08T21:56:19.704Z,81.19
2023-01-08T21:59:17.165Z,81.18
2023-01-08T22:02:15.349Z,81.18
2023-01-08T22:05:12.786Z,81.20
2023-01-08T22:08:15.699Z,81.16
2023-01-08T22:11:13.400Z,81.18
2023-01-08T22:14:11.018Z,81.08
2023-01-08T22:17:08.696Z,81.12
2023-01-08T22:20:08.938Z,81.10
2023-01-08T22:23:06.677Z,81.02
2023-01-08T22:26:04.115Z,80.97
2023-01-08T22:29:01.746Z,80.90
2023-01-08T22:31:59.241Z,80.90
2023-01-08T22:34:56.930Z,80.85
2023-01-08T22:37:54.372Z,80.90
2023-01-08T22:40:52.065Z,80.89
2023-01-08T22:43:49.513Z,81.00
2023-01-08T22:46:47.134Z,81.01
2023-01-08T22:49:44.823Z,81.01
2023-01-08T22:52:42.292Z,81.10
2023-01-08T22:55:39.981Z,81.11
2023-01-08T22:58:37.397Z,81.17
2023-01-08T23:01:35.175Z,81.20
2023-01-08T23:04:32.733Z,81.17
2023-01-08T23:07:30.526Z,81.12
2023-01-08T23:10:27.965Z,81.14
2023-01-08T23:13:25.759Z,81.15
2023-01-08T23:16:24.824Z,81.13
2023-01-08T23:19:22.933Z,81.18
2023-01-08T23:22:20.693Z,81.26
2023-01-08T23:25:18.120Z,81.29
2023-01-08T23:28:15.808Z,81.27
2023-01-08T23:31:13.244Z,81.31
2023-01-08T23:34:10.841Z,81.28
2023-01-08T23:37:08.500Z,81.38
2023-01-08T23:40:05.912Z,81.38
2023-01-08T23:43:03.629Z,81.40
2023-01-08T23:46:01.060Z,81.37
2023-01-08T23:48:58.859Z,81.38
2023-01-08T23:51:56.276Z,81.33
2023-01-08T23:54:53.971Z,81.37
2023-01-08T23:57:51.393Z,81.43
